createdAt,value
2022-12-20T00:00:29.880Z, 29.24
2022-12-20T00:01:30.016Z, 29.26
2022-12-20T00:02:30.003Z, 29.30
2022-12-20T00:03:29.877Z, 29.29
2022-12-20T00:04:29.928Z, 29.28
2022-12-20T00:05:29.908Z, 29.24
2022-12-20T00:06:29.961Z, 29.23
2022-12-20T00:07:29.924Z, 29.24
2022-12-20T00:08:29.935Z, 29.23
2022-12-20T00:09:29.925Z, 29.20
2022-12-20T00:10:29.930Z, 29.20
2022-12-20T00:11:30.079Z, 29.15
2022-12-20T00:12:29.946Z, 29.14
2022-12-20T00:13:30.033Z, 29.13
2022-12-20T00:14:30.006Z, 29.10
2022-12-20T00:15:30.051Z, 29.07
2022-12-20T00:16:30.040Z, 29.07
2022-12-20T00:17:30.128Z, 29.06
2022-12-20T00:18:30.058Z, 29.04
2022-12-20T00:19:30.058Z, 29.02
2022-12-20T00:20:30.063Z, 29.00
2022-12-20T00:21:30.097Z, 28.98
2022-12-20T00:22:30.077Z, 28.97
2022-12-20T00:23:30.099Z, 28.95
2022-12-20T00:24:30.160Z, 28.96
2022-12-20T00:25:30.149Z, 28.94
2022-12-20T00:26:30.188Z, 28.92
2022-12-20T00:27:30.231Z, 28.90
2022-12-20T00:28:30.224Z, 28.88
2022-12-20T00:29:30.230Z, 28.91
2022-12-20T00:30:30.219Z, 28.90
2022-12-20T00:31:30.399Z, 28.87
2022-12-20T00:32:30.210Z, 28.85
2022-12-20T00:33:30.229Z, 28.83
2022-12-20T00:34:30.284Z, 28.83
2022-12-20T00:35:30.235Z, 28.84
2022-12-20T00:36:30.302Z, 28.77
2022-12-20T00:37:30.299Z, 28.80
2022-12-20T00:38:30.354Z, 28.80
2022-12-20T00:39:30.318Z, 28.77
2022-12-20T00:40:30.317Z, 28.76
2022-12-20T00:41:30.363Z, 28.73
2022-12-20T00:42:30.360Z, 28.73
2022-12-20T00:43:30.357Z, 28.73
2022-12-20T00:44:30.360Z, 28.69
2022-12-20T00:45:30.364Z, 28.67
2022-12-20T00:46:30.410Z, 28.64
2022-12-20T00:47:30.434Z, 28.62
2022-12-20T00:48:30.480Z, 28.65
2022-12-20T00:49:30.452Z, 28.65
2022-12-20T00:50:30.500Z, 28.63
2022-12-20T00:51:30.465Z, 28.61
2022-12-20T00:52:30.463Z, 28.59
2022-12-20T00:53:30.489Z, 28.58
2022-12-20T00:54:30.484Z, 28.56
2022-12-20T00:55:30.508Z, 28.55
2022-12-20T00:56:30.501Z, 28.55
2022-12-20T00:57:30.521Z, 28.52
2022-12-20T00:58:30.532Z, 28.51
2022-12-20T00:59:30.589Z, 28.51
2022-12-20T01:00:30.590Z, 28.52
2022-12-20T01:01:30.890Z, 28.50
2022-12-20T01:02:30.808Z, 28.50
2022-12-20T01:03:30.799Z, 28.52
2022-12-20T01:04:30.640Z, 28.53
2022-12-20T01:05:30.661Z, 28.51
2022-12-20T01:06:30.664Z, 28.50
2022-12-20T01:07:30.702Z, 28.50
2022-12-20T01:08:30.761Z, 28.46
2022-12-20T01:09:30.715Z, 28.44
2022-12-20T01:10:30.703Z, 28.41
2022-12-20T01:11:30.703Z, 28.41
2022-12-20T01:12:30.705Z, 28.38
2022-12-20T01:13:30.724Z, 28.35
2022-12-20T01:14:30.916Z, 28.33
2022-12-20T01:15:30.778Z, 28.32
2022-12-20T01:16:30.887Z, 28.32
2022-12-20T01:17:30.815Z, 28.30
2022-12-20T01:18:30.796Z, 28.28
2022-12-20T01:19:30.850Z, 28.30
2022-12-20T01:20:30.829Z, 28.30
2022-12-20T01:21:30.883Z, 28.29
2022-12-20T01:22:30.852Z, 28.29
2022-12-20T01:23:30.876Z, 28.27
2022-12-20T01:24:30.851Z, 28.26
2022-12-20T01:25:30.922Z, 28.24
2022-12-20T01:26:30.937Z, 28.22
2022-12-20T01:27:30.902Z, 28.22
2022-12-20T01:28:30.913Z, 28.22
2022-12-20T01:29:30.890Z, 28.21
2022-12-20T01:30:30.916Z, 28.17
2022-12-20T01:31:30.994Z, 28.16
2022-12-20T01:32:30.991Z, 28.15
2022-12-20T01:33:30.976Z, 28.17
2022-12-20T01:34:31.004Z, 28.17
2022-12-20T01:35:30.986Z, 28.14
2022-12-20T01:36:31.033Z, 28.11
2022-12-20T01:37:30.998Z, 28.10
2022-12-20T01:38:31.057Z, 28.09
2022-12-20T01:39:31.049Z, 28.10
2022-12-20T01:40:31.100Z, 28.09
2022-12-20T01:41:31.105Z, 28.08
2022-12-20T01:42:31.123Z, 28.08
2022-12-20T01:43:31.110Z, 28.04
2022-12-20T01:44:31.146Z, 28.02
2022-12-20T01:45:31.216Z, 28.00
2022-12-20T01:46:31.269Z, 28.02
2022-12-20T01:47:31.134Z, 28.01
2022-12-20T01:48:31.137Z, 28.01
2022-12-20T01:49:31.162Z, 28.01
2022-12-20T01:50:31.172Z, 27.97
2022-12-20T01:51:31.199Z, 27.96
2022-12-20T01:52:31.166Z, 27.94
2022-12-20T01:53:31.264Z, 27.93
2022-12-20T01:54:31.227Z, 27.93
2022-12-20T01:55:31.271Z, 27.96
2022-12-20T01:56:31.231Z, 27.93
2022-12-20T01:57:31.271Z, 27.90
2022-12-20T01:58:31.252Z, 27.89
2022-12-20T01:59:31.243Z, 27.89
2022-12-20T02:00:31.275Z, 27.89
2022-12-20T02:01:31.558Z, 27.89
2022-12-20T02:02:31.440Z, 27.88
2022-12-20T02:03:31.453Z, 27.89
2022-12-20T02:04:31.322Z, 27.88
2022-12-20T02:05:31.344Z, 27.91
2022-12-20T02:06:31.420Z, 27.87
2022-12-20T02:07:31.407Z, 27.82
2022-12-20T02:08:31.453Z, 27.80
2022-12-20T02:09:31.440Z, 27.80
2022-12-20T02:10:31.473Z, 27.77
2022-12-20T02:11:31.462Z, 27.77
2022-12-20T02:12:31.491Z, 27.81
2022-12-20T02:13:31.482Z, 27.79
2022-12-20T02:14:31.515Z, 27.78
2022-12-20T02:15:31.502Z, 27.75
2022-12-20T02:16:31.667Z, 27.74
2022-12-20T02:17:31.541Z, 27.73
2022-12-20T02:18:31.536Z, 27.71
2022-12-20T02:19:31.577Z, 27.70
2022-12-20T02:20:31.550Z, 27.69
2022-12-20T02:21:31.595Z, 27.69
2022-12-20T02:22:31.625Z, 27.66
2022-12-20T02:23:31.641Z, 27.65
2022-12-20T02:24:31.591Z, 27.64
2022-12-20T02:25:31.601Z, 27.62
2022-12-20T02:26:31.601Z, 27.63
2022-12-20T02:27:31.612Z, 27.60
2022-12-20T02:28:31.616Z, 27.60
2022-12-20T02:29:31.665Z, 27.59
2022-12-20T02:30:31.647Z, 27.56
2022-12-20T02:31:31.697Z, 27.57
2022-12-20T02:32:31.663Z, 27.61
2022-12-20T02:33:31.709Z, 27.60
2022-12-20T02:34:31.684Z, 27.56
2022-12-20T02:35:31.726Z, 27.54
2022-12-20T02:36:31.716Z, 27.53
2022-12-20T02:37:31.724Z, 27.57
2022-12-20T02:38:31.824Z, 27.57
2022-12-20T02:39:31.789Z, 27.53
2022-12-20T02:40:31.805Z, 27.49
2022-12-20T02:41:31.810Z, 27.48
2022-12-20T02:42:31.828Z, 27.47
2022-12-20T02:43:31.835Z, 27.47
2022-12-20T02:44:31.864Z, 27.45
2022-12-20T02:45:31.904Z, 27.45
2022-12-20T02:46:31.916Z, 27.47
2022-12-20T02:47:31.941Z, 27.46
2022-12-20T02:48:31.938Z, 27.46
2022-12-20T02:49:31.928Z, 27.45
2022-12-20T02:50:31.943Z, 27.44
2022-12-20T02:51:31.952Z, 27.44
2022-12-20T02:52:31.957Z, 27.43
2022-12-20T02:53:31.993Z, 27.40
2022-12-20T02:54:31.988Z, 27.39
2022-12-20T02:55:31.969Z, 27.37
2022-12-20T02:56:32.016Z, 27.34
2022-12-20T02:57:32.001Z, 27.35
2022-12-20T02:58:32.067Z, 27.35
2022-12-20T02:59:32.039Z, 27.33
2022-12-20T03:00:32.088Z, 27.30
2022-12-20T03:01:32.267Z, 27.29
2022-12-20T03:02:32.222Z, 27.31
2022-12-20T03:03:32.098Z, 27.29
2022-12-20T03:04:32.115Z, 27.27
2022-12-20T03:05:32.102Z, 27.30
2022-12-20T03:06:32.137Z, 27.32
2022-12-20T03:07:32.143Z, 27.30
2022-12-20T03:08:32.123Z, 27.29
2022-12-20T03:09:32.189Z, 27.29
2022-12-20T03:10:32.125Z, 27.28
2022-12-20T03:11:32.207Z, 27.25
2022-12-20T03:12:32.169Z, 27.24
2022-12-20T03:13:32.231Z, 27.25
2022-12-20T03:14:32.208Z, 27.22
2022-12-20T03:15:32.217Z, 27.22
2022-12-20T03:16:32.250Z, 27.22
2022-12-20T03:17:32.205Z, 27.23
2022-12-20T03:18:32.229Z, 27.22
2022-12-20T03:19:32.237Z, 27.19
2022-12-20T03:20:32.317Z, 27.16
2022-12-20T03:21:32.310Z, 27.12
2022-12-20T03:22:32.346Z, 27.12
2022-12-20T03:23:32.334Z, 27.13
2022-12-20T03:24:32.312Z, 27.14
2022-12-20T03:25:32.302Z, 27.13
2022-12-20T03:26:32.387Z, 27.14
2022-12-20T03:27:32.371Z, 27.20
2022-12-20T03:28:32.390Z, 27.23
2022-12-20T03:29:32.390Z, 27.23
2022-12-20T03:30:32.408Z, 27.24
2022-12-20T03:31:32.488Z, 27.23
2022-12-20T03:32:32.412Z, 27.21
2022-12-20T03:33:32.464Z, 27.19
2022-12-20T03:34:32.425Z, 27.15
2022-12-20T03:35:32.474Z, 27.15
2022-12-20T03:36:32.452Z, 27.14
2022-12-20T03:37:32.439Z, 27.13
2022-12-20T03:38:32.479Z, 27.12
2022-12-20T03:39:32.459Z, 27.11
2022-12-20T03:40:32.540Z, 27.08
2022-12-20T03:41:32.551Z, 27.07
2022-12-20T03:42:32.519Z, 27.09
2022-12-20T03:43:32.523Z, 27.08
2022-12-20T03:44:32.599Z, 27.05
2022-12-20T03:45:32.598Z, 27.02
2022-12-20T03:46:32.639Z, 27.03
2022-12-20T03:47:32.670Z, 27.05
2022-12-20T03:48:32.622Z, 27.03
2022-12-20T03:49:32.651Z, 27.00
2022-12-20T03:50:32.622Z, 26.98
2022-12-20T03:51:32.647Z, 26.97
2022-12-20T03:52:32.657Z, 26.94
2022-12-20T03:53:32.664Z, 26.95
2022-12-20T03:54:32.651Z, 26.94
2022-12-20T03:55:32.725Z, 26.93
2022-12-20T03:56:32.669Z, 26.91
2022-12-20T03:57:32.684Z, 26.93
2022-12-20T03:58:32.698Z, 26.96
2022-12-20T03:59:32.689Z, 26.97
2022-12-20T04:00:32.721Z, 26.93
2022-12-20T04:01:32.848Z, 26.92
2022-12-20T04:02:32.930Z, 26.90
2022-12-20T04:03:32.840Z, 26.88
2022-12-20T04:04:32.820Z, 26.87
2022-12-20T04:05:32.800Z, 26.86
2022-12-20T04:06:32.807Z, 26.85
2022-12-20T04:07:32.799Z, 26.88
2022-12-20T04:08:32.827Z, 26.91
2022-12-20T04:09:32.875Z, 26.89
2022-12-20T04:10:32.872Z, 26.89
2022-12-20T04:11:32.904Z, 26.86
2022-12-20T04:12:32.877Z, 26.83
2022-12-20T04:13:32.933Z, 26.81
2022-12-20T04:14:32.916Z, 26.76
2022-12-20T04:15:32.990Z, 26.72
2022-12-20T04:16:33.033Z, 26.71
2022-12-20T04:17:32.955Z, 26.70
2022-12-20T04:18:32.960Z, 26.69
2022-12-20T04:19:32.999Z, 26.70
2022-12-20T04:20:32.978Z, 26.72
2022-12-20T04:21:32.974Z, 26.71
2022-12-20T04:22:33.002Z, 26.69
2022-12-20T04:23:32.994Z, 26.66
2022-12-20T04:24:33.018Z, 26.66
2022-12-20T04:25:33.015Z, 26.64
2022-12-20T04:26:33.093Z, 26.61
2022-12-20T04:27:33.069Z, 26.60
2022-12-20T04:28:33.107Z, 26.59
2022-12-20T04:29:33.096Z, 26.61
2022-12-20T04:30:33.094Z, 26.61
2022-12-20T04:31:33.115Z, 27.38
2022-12-20T04:32:33.119Z, 28.03
2022-12-20T04:33:33.167Z, 30.19
2022-12-20T04:34:33.135Z, 35.84
2022-12-20T04:35:33.195Z, 41.26
2022-12-20T04:36:33.172Z, 42.20
2022-12-20T04:37:33.228Z, 39.94
2022-12-20T04:38:33.222Z, 36.82
2022-12-20T04:39:33.203Z, 33.84
2022-12-20T04:40:33.244Z, 31.33
2022-12-20T04:41:33.221Z, 28.19
2022-12-20T04:42:33.271Z, 25.69
2022-12-20T04:43:33.261Z, 23.70
2022-12-20T04:44:33.279Z, 25.02
2022-12-20T04:45:33.267Z, 29.77
2022-12-20T04:46:33.376Z, 33.84
2022-12-20T04:47:33.344Z, 36.40
2022-12-20T04:48:56.461Z, 38.08
2022-12-20T04:49:33.339Z, 39.44
2022-12-20T04:50:33.319Z, 40.48
2022-12-20T04:51:33.363Z, 41.35
2022-12-20T04:52:33.346Z, 42.03
2022-12-20T04:53:33.380Z, 42.74
2022-12-20T04:54:33.371Z, 43.24
2022-12-20T04:55:33.410Z, 43.95
2022-12-20T04:56:33.395Z, 44.49
2022-12-20T04:57:33.393Z, 45.03
2022-12-20T04:58:33.491Z, 45.54
2022-12-20T04:59:33.442Z, 46.20
2022-12-20T05:00:33.459Z, 47.32
2022-12-20T05:01:33.624Z, 49.55
2022-12-20T05:02:33.589Z, 50.71
2022-12-20T05:03:33.605Z, 50.84
2022-12-20T05:04:37.313Z, 52.32
2022-12-20T05:05:33.490Z, 54.73
2022-12-20T05:06:33.497Z, 57.93
2022-12-20T05:07:33.494Z, 61.16
2022-12-20T05:08:33.527Z, 65.74
2022-12-20T05:09:33.581Z, 52.11
2022-12-20T05:10:33.592Z, 53.05
2022-12-20T05:11:33.614Z, 54.17
2022-12-20T05:12:33.611Z, 55.91
2022-12-20T05:13:33.662Z, 58.61
2022-12-20T05:14:33.627Z, 64.27
2022-12-20T05:15:33.616Z, 62.82
2022-12-20T05:16:33.700Z, 52.94
2022-12-20T05:17:33.634Z, 53.82
2022-12-20T05:18:33.708Z, 54.78
2022-12-20T05:19:33.676Z, 56.87
2022-12-20T05:20:33.727Z, 60.07
2022-12-20T05:21:33.738Z, 69.08
2022-12-20T05:22:33.722Z, 57.69
2022-12-20T05:23:33.736Z, 53.98
2022-12-20T05:24:33.728Z, 55.05
2022-12-20T05:25:33.777Z, 55.88
2022-12-20T05:26:33.757Z, 56.35
2022-12-20T05:27:33.815Z, 57.02
2022-12-20T05:28:33.810Z, 55.02
2022-12-20T05:29:33.805Z, 52.06
2022-12-20T05:30:33.802Z, 49.97
2022-12-20T05:31:33.917Z, 48.31
2022-12-20T05:32:33.801Z, 46.84
2022-12-20T05:33:34.449Z, 45.62
2022-12-20T05:34:33.915Z, 44.49
2022-12-20T05:35:33.885Z, 43.44
2022-12-20T05:36:33.922Z, 42.52
2022-12-20T05:37:33.888Z, 41.68
2022-12-20T05:38:33.944Z, 41.12
2022-12-20T05:39:33.931Z, 43.81
2022-12-20T05:40:33.914Z, 48.55
2022-12-20T05:41:34.001Z, 52.44
2022-12-20T05:42:33.955Z, 52.65
2022-12-20T05:43:33.968Z, 51.06
2022-12-20T05:44:33.975Z, 49.73
2022-12-20T05:45:34.044Z, 48.35
2022-12-20T05:46:34.119Z, 46.90
2022-12-20T05:47:34.057Z, 45.45
2022-12-20T05:48:34.208Z, 44.13
2022-12-20T05:49:34.063Z, 42.95
2022-12-20T05:50:34.100Z, 41.72
2022-12-20T05:51:34.054Z, 40.25
2022-12-20T05:52:34.072Z, 38.31
2022-12-20T05:53:34.071Z, 36.31
2022-12-20T05:54:34.140Z, 36.85
2022-12-20T05:55:34.125Z, 43.67
2022-12-20T05:56:34.179Z, 49.64
2022-12-20T05:57:34.146Z, 52.98
2022-12-20T05:58:34.204Z, 53.26
2022-12-20T05:59:34.185Z, 52.65
2022-12-20T06:00:34.169Z, 51.83
2022-12-20T06:01:34.271Z, 50.94
2022-12-20T06:02:34.425Z, 49.99
2022-12-20T06:03:34.396Z, 48.93
2022-12-20T06:04:34.220Z, 47.88
2022-12-20T06:05:34.218Z, 46.85
2022-12-20T06:06:34.237Z, 45.70
2022-12-20T06:07:34.341Z, 44.69
2022-12-20T06:08:34.359Z, 43.72
2022-12-20T06:09:34.327Z, 42.72
2022-12-20T06:10:34.330Z, 41.68
2022-12-20T06:11:34.334Z, 42.77
2022-12-20T06:12:34.330Z, 48.71
2022-12-20T06:13:34.384Z, 52.45
2022-12-20T06:14:34.364Z, 53.21
2022-12-20T06:15:34.367Z, 52.08
2022-12-20T06:16:34.516Z, 52.23
2022-12-20T06:17:34.413Z, 52.08
2022-12-20T06:18:34.475Z, 51.75
2022-12-20T06:19:34.441Z, 51.47
2022-12-20T06:20:34.457Z, 51.13
2022-12-20T06:21:34.454Z, 50.88
2022-12-20T06:22:34.452Z, 50.61
2022-12-20T06:23:34.467Z, 50.39
2022-12-20T06:24:34.475Z, 50.16
2022-12-20T06:25:34.557Z, 49.94
2022-12-20T06:26:34.537Z, 49.72
2022-12-20T06:27:34.561Z, 49.52
2022-12-20T06:28:34.565Z, 49.33
2022-12-20T06:29:34.601Z, 49.14
2022-12-20T06:30:34.608Z, 48.96
2022-12-20T06:31:34.699Z, 48.79
2022-12-20T06:32:34.572Z, 48.60
2022-12-20T06:33:34.588Z, 48.43
2022-12-20T06:34:34.590Z, 48.24
2022-12-20T06:35:34.624Z, 48.05
2022-12-20T06:36:34.632Z, 47.93
2022-12-20T06:37:34.617Z, 47.72
2022-12-20T06:38:34.671Z, 47.58
2022-12-20T06:39:34.646Z, 47.44
2022-12-20T06:40:34.723Z, 47.22
2022-12-20T06:41:34.705Z, 47.09
2022-12-20T06:42:34.710Z, 46.94
2022-12-20T06:43:34.771Z, 46.83
2022-12-20T06:44:34.708Z, 46.67
2022-12-20T06:45:41.236Z, 46.54
2022-12-20T06:46:34.929Z, 46.40
2022-12-20T06:47:34.827Z, 46.21
2022-12-20T06:48:34.803Z, 46.09
2022-12-20T06:49:34.794Z, 45.99
2022-12-20T06:50:34.791Z, 45.82
2022-12-20T06:51:34.860Z, 45.68
2022-12-20T06:52:34.845Z, 45.62
2022-12-20T06:53:34.841Z, 45.46
2022-12-20T06:54:34.915Z, 45.36
2022-12-20T06:55:34.899Z, 45.24
2022-12-20T06:56:41.036Z, 45.09
2022-12-20T06:57:34.913Z, 44.99
2022-12-20T06:58:34.963Z, 44.89
2022-12-20T06:59:34.941Z, 44.77
2022-12-20T07:00:34.941Z, 44.61
2022-12-20T07:01:35.161Z, 44.50
2022-12-20T07:02:35.184Z, 44.41
2022-12-20T07:03:35.120Z, 44.29
2022-12-20T07:04:35.007Z, 44.27
2022-12-20T07:05:34.999Z, 44.11
2022-12-20T07:06:34.993Z, 44.00
2022-12-20T07:07:40.192Z, 43.91
2022-12-20T07:08:35.004Z, 43.82
2022-12-20T07:09:35.051Z, 43.76
2022-12-20T07:10:35.044Z, 43.65
2022-12-20T07:11:35.117Z, 43.55
2022-12-20T07:12:35.107Z, 43.47
2022-12-20T07:13:35.144Z, 43.34
2022-12-20T07:14:35.110Z, 43.29
2022-12-20T07:15:35.122Z, 43.23
2022-12-20T07:16:35.189Z, 43.19
2022-12-20T07:17:35.159Z, 43.03
2022-12-20T07:18:35.145Z, 42.97
2022-12-20T07:19:35.130Z, 42.87
2022-12-20T07:20:35.206Z, 42.87
2022-12-20T07:21:35.184Z, 42.75
2022-12-20T07:22:35.184Z, 42.67
2022-12-20T07:23:35.212Z, 42.54
2022-12-20T07:24:35.175Z, 42.51
2022-12-20T07:25:35.195Z, 42.44
2022-12-20T07:26:35.209Z, 42.36
2022-12-20T07:27:35.269Z, 42.30
2022-12-20T07:28:35.241Z, 42.22
2022-12-20T07:29:35.304Z, 43.11
2022-12-20T07:30:35.294Z, 43.96
2022-12-20T07:31:35.433Z, 43.28
2022-12-20T07:32:35.333Z, 41.81
2022-12-20T07:33:35.373Z, 39.80
2022-12-20T07:34:35.354Z, 39.18
2022-12-20T07:35:35.389Z, 43.31
2022-12-20T07:36:35.389Z, 47.06
2022-12-20T07:37:35.410Z, 49.26
2022-12-20T07:38:35.413Z, 50.64
2022-12-20T07:39:35.471Z, 51.41
2022-12-20T07:40:35.430Z, 49.42
2022-12-20T07:41:35.483Z, 46.08
2022-12-20T07:42:38.988Z, 42.69
2022-12-20T07:43:35.496Z, 39.37
2022-12-20T07:44:35.481Z, 35.09
2022-12-20T07:45:35.595Z, 30.50
2022-12-20T07:46:35.586Z, 31.76
2022-12-20T07:47:35.497Z, 37.11
2022-12-20T07:48:35.573Z, 41.36
2022-12-20T07:49:35.521Z, 44.70
2022-12-20T07:50:35.590Z, 47.07
2022-12-20T07:51:35.586Z, 48.96
2022-12-20T07:52:35.595Z, 50.52
2022-12-20T07:53:35.590Z, 52.74
2022-12-20T07:54:35.643Z, 53.21
2022-12-20T07:55:35.611Z, 51.37
2022-12-20T07:56:40.956Z, 49.24
2022-12-20T07:57:35.631Z, 47.16
2022-12-20T07:58:35.666Z, 45.21
2022-12-20T07:59:35.670Z, 43.57
2022-12-20T08:00:35.695Z, 41.94
2022-12-20T08:01:35.889Z, 39.97
2022-12-20T08:02:36.048Z, 37.43
2022-12-20T08:03:35.867Z, 34.98
2022-12-20T08:04:35.719Z, 35.98
2022-12-20T08:05:35.697Z, 41.91
2022-12-20T08:06:35.689Z, 47.29
2022-12-20T08:07:35.773Z, 51.07
2022-12-20T08:08:35.760Z, 53.38
2022-12-20T08:09:35.789Z, 53.97
2022-12-20T08:10:35.765Z, 53.29
2022-12-20T08:11:35.810Z, 51.99
2022-12-20T08:12:35.798Z, 50.83
2022-12-20T08:13:39.416Z, 49.54
2022-12-20T08:14:35.832Z, 48.22
2022-12-20T08:15:35.828Z, 46.87
2022-12-20T08:16:35.942Z, 45.62
2022-12-20T08:17:35.843Z, 44.57
2022-12-20T08:18:35.842Z, 43.57
2022-12-20T08:19:35.892Z, 42.49
2022-12-20T08:20:35.883Z, 41.20
2022-12-20T08:21:35.957Z, 40.41
2022-12-20T08:22:35.930Z, 45.09
2022-12-20T08:23:35.976Z, 49.23
2022-12-20T08:24:35.942Z, 51.85
2022-12-20T08:25:40.958Z, 52.56
2022-12-20T08:26:35.942Z, 52.23
2022-12-20T08:27:36.003Z, 51.46
2022-12-20T08:28:36.026Z, 50.50
2022-12-20T08:29:35.998Z, 49.51
2022-12-20T08:30:36.125Z, 48.47
2022-12-20T08:31:36.089Z, 47.49
2022-12-20T08:32:36.068Z, 46.57
2022-12-20T08:33:36.074Z, 45.65
2022-12-20T08:34:36.073Z, 44.76
2022-12-20T08:35:36.046Z, 43.87
2022-12-20T08:36:36.051Z, 42.87
2022-12-20T08:37:36.101Z, 41.83
2022-12-20T08:38:36.103Z, 40.55
2022-12-20T08:39:36.141Z, 41.60
2022-12-20T08:40:36.138Z, 47.21
2022-12-20T08:41:36.154Z, 50.90
2022-12-20T08:42:36.143Z, 52.68
2022-12-20T08:43:36.172Z, 52.63
2022-12-20T08:44:36.153Z, 51.98
2022-12-20T08:45:36.156Z, 51.21
2022-12-20T08:46:36.285Z, 50.36
2022-12-20T08:47:36.208Z, 49.48
2022-12-20T08:48:36.233Z, 48.53
2022-12-20T08:49:36.221Z, 47.62
2022-12-20T08:50:36.263Z, 46.77
2022-12-20T08:51:36.292Z, 45.87
2022-12-20T08:52:36.256Z, 44.94
2022-12-20T08:53:36.304Z, 44.09
2022-12-20T08:54:36.285Z, 43.19
2022-12-20T08:55:36.355Z, 42.28
2022-12-20T08:56:36.343Z, 41.28
2022-12-20T08:57:36.336Z, 40.43
2022-12-20T08:58:36.372Z, 44.81
2022-12-20T08:59:36.333Z, 49.53
2022-12-20T09:00:36.393Z, 52.11
2022-12-20T09:01:36.546Z, 51.98
2022-12-20T09:02:36.661Z, 51.12
2022-12-20T09:03:36.571Z, 50.43
2022-12-20T09:04:36.460Z, 49.56
2022-12-20T09:05:36.439Z, 48.58
2022-12-20T09:06:36.470Z, 47.59
2022-12-20T09:07:36.465Z, 46.68
2022-12-20T09:08:36.480Z, 45.79
2022-12-20T09:09:36.497Z, 44.85
2022-12-20T09:10:36.466Z, 44.01
2022-12-20T09:11:36.532Z, 43.22
2022-12-20T09:12:36.519Z, 42.43
2022-12-20T09:13:39.698Z, 41.56
2022-12-20T09:14:36.557Z, 40.59
2022-12-20T09:15:36.607Z, 42.31
2022-12-20T09:16:36.564Z, 48.05
2022-12-20T09:17:36.630Z, 51.34
2022-12-20T09:18:36.618Z, 51.92
2022-12-20T09:19:36.606Z, 51.04
2022-12-20T09:20:36.651Z, 50.33
2022-12-20T09:21:36.619Z, 49.52
2022-12-20T09:22:36.666Z, 48.55
2022-12-20T09:23:36.631Z, 47.56
2022-12-20T09:24:36.691Z, 46.58
2022-12-20T09:25:36.666Z, 45.67
2022-12-20T09:26:36.670Z, 44.77
2022-12-20T09:27:36.668Z, 43.96
2022-12-20T09:28:36.691Z, 43.18
2022-12-20T09:29:36.677Z, 42.38
2022-12-20T09:30:36.926Z, 41.51
2022-12-20T09:31:36.867Z, 40.51
2022-12-20T09:32:36.737Z, 39.45
2022-12-20T09:33:36.838Z, 42.44
2022-12-20T09:34:36.835Z, 48.06
2022-12-20T09:35:36.843Z, 51.22
2022-12-20T09:36:36.822Z, 51.93
2022-12-20T09:37:36.838Z, 51.19
2022-12-20T09:38:36.824Z, 50.40
2022-12-20T09:39:36.900Z, 49.89
2022-12-20T09:40:36.864Z, 49.95
2022-12-20T09:41:36.871Z, 50.60
2022-12-20T09:42:36.918Z, 53.06
2022-12-20T09:43:36.894Z, 56.19
2022-12-20T09:44:36.936Z, 59.61
2022-12-20T09:45:36.918Z, 68.89
2022-12-20T09:46:37.074Z, 57.91
2022-12-20T09:47:36.953Z, 52.68
2022-12-20T09:48:36.965Z, 54.00
2022-12-20T09:49:37.004Z, 55.08
2022-12-20T09:50:36.949Z, 57.59
2022-12-20T09:51:36.952Z, 60.53
2022-12-20T09:52:36.981Z, 67.92
2022-12-20T09:53:37.017Z, 54.51
2022-12-20T09:54:36.990Z, 53.58
2022-12-20T09:55:37.058Z, 54.78
2022-12-20T09:56:37.018Z, 55.68
2022-12-20T09:57:37.101Z, 56.38
2022-12-20T09:58:37.094Z, 56.67
2022-12-20T09:59:40.412Z, 57.86
2022-12-20T10:00:37.116Z, 57.64
2022-12-20T10:01:40.022Z, 56.03
2022-12-20T10:02:58.923Z, 54.46
2022-12-20T10:03:37.249Z, 53.04
2022-12-20T10:04:37.471Z, 51.67
2022-12-20T10:05:41.155Z, 50.44
2022-12-20T10:06:37.211Z, 49.32
2022-12-20T10:07:37.199Z, 48.23
2022-12-20T10:08:37.254Z, 47.11
2022-12-20T10:09:37.226Z, 45.82
2022-12-20T10:10:37.232Z, 44.49
2022-12-20T10:11:42.225Z, 43.11
2022-12-20T10:12:37.214Z, 41.79
2022-12-20T10:13:37.281Z, 40.75
2022-12-20T10:14:37.261Z, 39.98
2022-12-20T10:15:37.339Z, 39.41
2022-12-20T10:16:37.403Z, 38.97
2022-12-20T10:17:37.334Z, 38.48
2022-12-20T10:18:37.330Z, 38.98
2022-12-20T10:19:37.316Z, 43.73
2022-12-20T10:20:37.317Z, 48.27
2022-12-20T10:21:37.361Z, 51.19
2022-12-20T10:22:37.407Z, 49.99
2022-12-20T10:23:37.405Z, 48.40
2022-12-20T10:24:37.430Z, 47.13
2022-12-20T10:25:37.412Z, 45.74
2022-12-20T10:26:37.457Z, 44.38
2022-12-20T10:27:37.456Z, 43.02
2022-12-20T10:28:37.486Z, 41.86
2022-12-20T10:29:37.463Z, 40.71
2022-12-20T10:30:37.607Z, 39.37
2022-12-20T10:31:37.673Z, 37.87
2022-12-20T10:32:37.511Z, 36.33
2022-12-20T10:33:37.534Z, 35.07
2022-12-20T10:34:41.011Z, 34.20
2022-12-20T10:35:37.562Z, 38.96
2022-12-20T10:36:37.540Z, 45.71
2022-12-20T10:37:39.311Z, 50.55
2022-12-20T10:38:37.567Z, 51.90
2022-12-20T10:39:37.538Z, 50.14
2022-12-20T10:41:10.175Z, 48.85
2022-12-20T10:41:37.568Z, 47.85
2022-12-20T10:42:37.631Z, 46.59
2022-12-20T10:43:37.637Z, 45.43
2022-12-20T10:44:37.620Z, 44.15
2022-12-20T10:45:37.613Z, 42.94
2022-12-20T10:46:37.775Z, 41.93
2022-12-20T10:47:37.684Z, 41.04
2022-12-20T10:48:37.719Z, 40.09
2022-12-20T10:49:37.677Z, 39.01
2022-12-20T10:50:37.689Z, 37.85
2022-12-20T10:51:37.683Z, 37.40
2022-12-20T10:52:37.811Z, 43.00
2022-12-20T10:53:37.826Z, 48.48
2022-12-20T10:54:37.766Z, 51.67
2022-12-20T10:55:37.789Z, 50.87
2022-12-20T10:56:37.761Z, 49.43
2022-12-20T10:57:37.821Z, 48.64
2022-12-20T10:58:37.813Z, 47.67
2022-12-20T10:59:37.818Z, 46.67
2022-12-20T11:00:37.809Z, 45.65
2022-12-20T11:01:37.958Z, 44.55
2022-12-20T11:02:41.679Z, 43.55
2022-12-20T11:03:37.971Z, 42.60
2022-12-20T11:04:37.915Z, 41.75
2022-12-20T11:05:37.903Z, 40.92
2022-12-20T11:06:37.932Z, 40.01
2022-12-20T11:07:37.898Z, 38.98
2022-12-20T11:08:46.780Z, 39.54
2022-12-20T11:09:37.962Z, 45.06
2022-12-20T11:10:37.965Z, 49.54
2022-12-20T11:11:37.990Z, 50.54
2022-12-20T11:12:37.993Z, 49.64
2022-12-20T11:13:38.021Z, 48.75
2022-12-20T11:14:39.636Z, 47.96
2022-12-20T11:15:38.027Z, 47.16
2022-12-20T11:16:38.265Z, 47.10
2022-12-20T11:17:38.051Z, 46.78
2022-12-20T11:18:38.104Z, 46.56
2022-12-20T11:19:38.073Z, 46.35
2022-12-20T11:20:38.078Z, 46.12
2022-12-20T11:21:38.080Z, 45.91
2022-12-20T11:22:38.077Z, 45.70
2022-12-20T11:23:38.159Z, 45.52
2022-12-20T11:24:38.106Z, 45.37
2022-12-20T11:25:38.177Z, 45.18
2022-12-20T11:26:38.139Z, 45.01
2022-12-20T11:27:38.139Z, 44.86
2022-12-20T11:28:38.177Z, 44.71
2022-12-20T11:29:38.141Z, 44.57
2022-12-20T11:30:38.241Z, 44.39
2022-12-20T11:31:38.316Z, 44.22
2022-12-20T11:32:41.841Z, 44.07
2022-12-20T11:33:38.244Z, 43.89
2022-12-20T11:34:38.235Z, 43.74
2022-12-20T11:35:38.237Z, 43.61
2022-12-20T11:36:38.289Z, 43.48
2022-12-20T11:37:38.274Z, 43.35
2022-12-20T11:38:38.287Z, 43.22
2022-12-20T11:39:38.325Z, 43.10
2022-12-20T11:40:38.323Z, 42.98
2022-12-20T11:41:38.395Z, 42.84
2022-12-20T11:42:38.375Z, 42.74
2022-12-20T11:44:00.985Z, 42.55
2022-12-20T11:44:41.379Z, 42.44
2022-12-20T11:45:38.397Z, 42.32
2022-12-20T11:46:38.605Z, 42.19
2022-12-20T11:47:38.410Z, 42.08
2022-12-20T11:48:38.493Z, 41.98
2022-12-20T11:49:38.458Z, 41.87
2022-12-20T11:50:38.460Z, 41.73
2022-12-20T11:51:38.468Z, 41.67
2022-12-20T11:52:38.474Z, 41.54
2022-12-20T11:53:38.515Z, 41.41
2022-12-20T11:54:38.484Z, 41.32
2022-12-20T11:55:38.499Z, 41.20
2022-12-20T11:56:43.839Z, 41.57
2022-12-20T11:58:08.929Z, 42.13
2022-12-20T11:58:38.520Z, 41.74
2022-12-20T11:59:38.522Z, 40.69
2022-12-20T12:00:38.585Z, 39.50
2022-12-20T12:01:38.771Z, 38.29
2022-12-20T12:02:38.838Z, 37.01
2022-12-20T12:03:38.665Z, 38.81
2022-12-20T12:04:38.599Z, 44.76
2022-12-20T12:05:38.745Z, 49.47
2022-12-20T12:06:38.607Z, 49.37
2022-12-20T12:07:38.673Z, 47.43
2022-12-20T12:08:38.660Z, 45.34
2022-12-20T12:09:38.699Z, 43.53
2022-12-20T12:10:38.700Z, 41.81
2022-12-20T12:12:07.116Z, 40.21
2022-12-20T12:12:38.709Z, 38.78
2022-12-20T12:13:38.713Z, 36.93
2022-12-20T12:14:38.702Z, 34.84
2022-12-20T12:15:38.704Z, 32.82
2022-12-20T12:16:38.809Z, 31.23
2022-12-20T12:17:38.731Z, 35.90
2022-12-20T12:18:38.806Z, 41.53
2022-12-20T12:19:38.790Z, 46.11
2022-12-20T12:20:38.846Z, 49.21
2022-12-20T12:21:38.826Z, 49.72
2022-12-20T12:22:38.856Z, 48.36
2022-12-20T12:23:38.845Z, 47.01
2022-12-20T12:24:38.889Z, 45.45
2022-12-20T12:25:38.881Z, 43.93
2022-12-20T12:26:38.910Z, 42.43
2022-12-20T12:27:38.926Z, 41.02
2022-12-20T12:28:38.898Z, 39.75